sensor_id;sensor_type;location;lat;lon;timestamp;temperature;humidity
8463;DHT22;4268;52.506;13.462;2023-09-30T00:01:36;17.50;99.90
8463;DHT22;4268;52.506;13.462;2023-09-30T00:04:02;17.50;99.90
8463;DHT22;4268;52.506;13.462;2023-09-30T00:06:30;17.50;99.90
8463;DHT22;4268;52.506;13.462;2023-09-30T00:08:56;17.50;99.90
8463;DHT22;4268;52.506;13.462;2023-09-30T00:11:22;17.50;99.90
8463;DHT22;4268;52.506;13.462;2023-09-30T00:13:48;17.50;99.90
8463;DHT22;4268;52.506;13.462;2023-09-30T00:16:14;17.50;99.90
8463;DHT22;4268;52.506;13.462;2023-09-30T00:18:42;17.40;99.90
8463;DHT22;4268;52.506;13.462;2023-09-30T00:21:08;17.50;99.90
8463;DHT22;4268;52.506;13.462;2023-09-30T00:23:33;17.30;99.90
8463;DHT22;4268;52.506;13.462;2023-09-30T00:25:59;17.20;99.90
8463;DHT22;4268;52.506;13.462;2023-09-30T00:28:26;17.10;99.90
8463;DHT22;4268;52.506;13.462;2023-09-30T00:30:51;16.80;99.90
8463;DHT22;4268;52.506;13.462;2023-09-30T00:33:16;16.90;99.90
8463;DHT22;4268;52.506;13.462;2023-09-30T00:35:42;16.90;99.90
8463;DHT22;4268;52.506;13.462;2023-09-30T00:38:08;16.80;99.90
8463;DHT22;4268;52.506;13.462;2023-09-30T00:40:35;16.70;99.90
8463;DHT22;4268;52.506;13.462;2023-09-30T00:43:00;16.70;99.90
8463;DHT22;4268;52.506;13.462;2023-09-30T00:45:27;16.60;99.90
8463;DHT22;4268;52.506;13.462;2023-09-30T00:47:53;16.50;99.90
8463;DHT22;4268;52.506;13.462;2023-09-30T00:50:19;16.30;99.90
8463;DHT22;4268;52.506;13.462;2023-09-30T00:52:47;16.40;99.90
8463;DHT22;4268;52.506;13.462;2023-09-30T00:55:14;16.30;99.90
8463;DHT22;4268;52.506;13.462;2023-09-30T00:57:40;16.30;99.90
8463;DHT22;4268;52.506;13.462;2023-09-30T01:00:07;16.20;99.90
8463;DHT22;4268;52.506;13.462;2023-09-30T01:02:38;16.20;99.90
8463;DHT22;4268;52.506;13.462;2023-09-30T01:05:04;16.10;99.90
8463;DHT22;4268;52.506;13.462;2023-09-30T01:07:30;16.10;99.90
8463;DHT22;4268;52.506;13.462;2023-09-30T01:09:55;16.10;99.90
8463;DHT22;4268;52.506;13.462;2023-09-30T01:12:21;16.00;99.90
8463;DHT22;4268;52.506;13.462;2023-09-30T01:14:46;16.00;99.90
8463;DHT22;4268;52.506;13.462;2023-09-30T01:17:12;15.90;99.90
8463;DHT22;4268;52.506;13.462;2023-09-30T01:19:39;15.90;99.90
8463;DHT22;4268;52.506;13.462;2023-09-30T01:22:05;15.80;99.90
8463;DHT22;4268;52.506;13.462;2023-09-30T01:24:30;15.80;99.90
8463;DHT22;4268;52.506;13.462;2023-09-30T01:26:57;15.70;99.90
8463;DHT22;4268;52.506;13.462;2023-09-30T01:29:22;15.70;99.90
8463;DHT22;4268;52.506;13.462;2023-09-30T01:31:50;15.70;99.90
8463;DHT22;4268;52.506;13.462;2023-09-30T01:34:16;15.60;99.90
8463;DHT22;4268;52.506;13.462;2023-09-30T01:36:44;15.60;99.90
8463;DHT22;4268;52.506;13.462;2023-09-30T01:39:11;15.60;99.90
8463;DHT22;4268;52.506;13.462;2023-09-30T01:41:37;15.50;99.90
8463;DHT22;4268;52.506;13.462;2023-09-30T01:44:03;15.40;99.90
8463;DHT22;4268;52.506;13.462;2023-09-30T01:46:29;15.50;99.90
8463;DHT22;4268;52.506;13.462;2023-09-30T01:48:59;15.40;99.90
8463;DHT22;4268;52.506;13.462;2023-09-30T01:51:27;15.40;99.90
8463;DHT22;4268;52.506;13.462;2023-09-30T01:53:56;15.40;99.90
8463;DHT22;4268;52.506;13.462;2023-09-30T01:56:22;15.40;99.90
8463;DHT22;4268;52.506;13.462;2023-09-30T01:58:52;15.30;99.90
8463;DHT22;4268;52.506;13.462;2023-09-30T02:01:18;15.30;99.90
8463;DHT22;4268;52.506;13.462;2023-09-30T02:03:43;15.30;99.90
8463;DHT22;4268;52.506;13.462;2023-09-30T02:06:09;15.20;99.90
8463;DHT22;4268;52.506;13.462;2023-09-30T02:08:36;15.20;99.90
8463;DHT22;4268;52.506;13.462;2023-09-30T02:11:02;15.10;99.90
8463;DHT22;4268;52.506;13.462;2023-09-30T02:13:27;14.90;99.90
8463;DHT22;4268;52.506;13.462;2023-09-30T02:15:59;15.80;99.90
8463;DHT22;4268;52.506;13.462;2023-09-30T02:18:25;15.10;99.90
8463;DHT22;4268;52.506;13.462;2023-09-30T02:20:50;15.00;99.90
8463;DHT22;4268;52.506;13.462;2023-09-30T02:23:16;15.00;99.90
8463;DHT22;4268;52.506;13.462;2023-09-30T02:25:42;15.00;99.90
8463;DHT22;4268;52.506;13.462;2023-09-30T02:28:09;14.90;99.90
8463;DHT22;4268;52.506;13.462;2023-09-30T02:30:35;14.90;99.90
8463;DHT22;4268;52.506;13.462;2023-09-30T02:33:01;14.80;99.90
8463;DHT22;4268;52.506;13.462;2023-09-30T02:35:27;14.80;99.90
8463;DHT22;4268;52.506;13.462;2023-09-30T02:37:52;14.80;99.90
8463;DHT22;4268;52.506;13.462;2023-09-30T02:40:19;14.80;99.90
8463;DHT22;4268;52.506;13.462;2023-09-30T02:42:45;14.80;99.90
8463;DHT22;4268;52.506;13.462;2023-09-30T02:45:11;14.70;99.90
8463;DHT22;4268;52.506;13.462;2023-09-30T02:47:38;14.70;99.90
8463;DHT22;4268;52.506;13.462;2023-09-30T02:50:07;14.70;99.90
8463;DHT22;4268;52.506;13.462;2023-09-30T02:52:39;14.70;99.90
8463;DHT22;4268;52.506;13.462;2023-09-30T02:55:10;14.70;99.90
8463;DHT22;4268;52.506;13.462;2023-09-30T02:57:36;14.70;99.90
8463;DHT22;4268;52.506;13.462;2023-09-30T03:00:05;14.70;99.90
8463;DHT22;4268;52.506;13.462;2023-09-30T03:02:53;14.70;99.90
8463;DHT22;4268;52.506;13.462;2023-09-30T03:05:18;14.60;99.90
8463;DHT22;4268;52.506;13.462;2023-09-30T03:07:45;14.50;99.90
8463;DHT22;4268;52.506;13.462;2023-09-30T03:10:11;14.60;99.90
8463;DHT22;4268;52.506;13.462;2023-09-30T03:12:38;14.50;99.90
8463;DHT22;4268;52.506;13.462;2023-09-30T03:15:04;14.60;99.90
8463;DHT22;4268;52.506;13.462;2023-09-30T03:17:30;14.60;99.90
8463;DHT22;4268;52.506;13.462;2023-09-30T03:19:57;13.70;99.90
8463;DHT22;4268;52.506;13.462;2023-09-30T03:22:23;14.60;99.90
8463;DHT22;4268;52.506;13.462;2023-09-30T03:24:49;14.70;99.90
8463;DHT22;4268;52.506;13.462;2023-09-30T03:27:14;14.50;99.90
8463;DHT22;4268;52.506;13.462;2023-09-30T03:29:41;14.50;99.90
8463;DHT22;4268;52.506;13.462;2023-09-30T03:32:06;14.40;99.90
8463;DHT22;4268;52.506;13.462;2023-09-30T03:34:33;14.40;99.90
8463;DHT22;4268;52.506;13.462;2023-09-30T03:37:02;14.40;99.90
8463;DHT22;4268;52.506;13.462;2023-09-30T03:39:27;14.40;99.90
8463;DHT22;4268;52.506;13.462;2023-09-30T03:41:55;14.40;99.90
8463;DHT22;4268;52.506;13.462;2023-09-30T03:44:21;14.40;99.90
8463;DHT22;4268;52.506;13.462;2023-09-30T03:46:48;14.30;99.90
8463;DHT22;4268;52.506;13.462;2023-09-30T03:49:13;14.40;99.90
8463;DHT22;4268;52.506;13.462;2023-09-30T03:51:40;14.30;99.90
8463;DHT22;4268;52.506;13.462;2023-09-30T03:54:06;14.30;99.90
8463;DHT22;4268;52.506;13.462;2023-09-30T03:56:32;14.30;99.90
8463;DHT22;4268;52.506;13.462;2023-09-30T03:58:57;14.30;99.90
8463;DHT22;4268;52.506;13.462;2023-09-30T04:01:23;14.30;99.90
8463;DHT22;4268;52.506;13.462;2023-09-30T04:03:51;14.30;99.90
8463;DHT22;4268;52.506;13.462;2023-09-30T04:06:19;14.30;99.90
8463;DHT22;4268;52.506;13.462;2023-09-30T04:08:45;14.30;99.90
8463;DHT22;4268;52.506;13.462;2023-09-30T04:11:10;14.20;99.90
8463;DHT22;4268;52.506;13.462;2023-09-30T04:13:42;14.20;99.90
8463;DHT22;4268;52.506;13.462;2023-09-30T04:16:07;14.20;99.90
8463;DHT22;4268;52.506;13.462;2023-09-30T04:18:33;14.20;99.90
8463;DHT22;4268;52.506;13.462;2023-09-30T04:20:58;14.10;99.90
8463;DHT22;4268;52.506;13.462;2023-09-30T04:23:25;14.10;99.90
8463;DHT22;4268;52.506;13.462;2023-09-30T04:25:50;14.10;99.90
8463;DHT22;4268;52.506;13.462;2023-09-30T04:28:16;14.10;99.90
8463;DHT22;4268;52.506;13.462;2023-09-30T04:30:49;14.10;99.90
8463;DHT22;4268;52.506;13.462;2023-09-30T04:33:15;14.00;99.90
8463;DHT22;4268;52.506;13.462;2023-09-30T04:35:43;14.00;99.90
8463;DHT22;4268;52.506;13.462;2023-09-30T04:38:09;14.00;99.90
8463;DHT22;4268;52.506;13.462;2023-09-30T04:40:36;14.00;99.90
8463;DHT22;4268;52.506;13.462;2023-09-30T04:43:01;14.00;99.90
8463;DHT22;4268;52.506;13.462;2023-09-30T04:45:27;14.00;99.90
8463;DHT22;4268;52.506;13.462;2023-09-30T04:47:53;13.90;99.90
8463;DHT22;4268;52.506;13.462;2023-09-30T04:50:21;13.90;99.90
8463;DHT22;4268;52.506;13.462;2023-09-30T04:52:48;13.90;99.90
8463;DHT22;4268;52.506;13.462;2023-09-30T04:55:14;13.90;99.90
8463;DHT22;4268;52.506;13.462;2023-09-30T04:57:42;13.90;99.90
8463;DHT22;4268;52.506;13.462;2023-09-30T05:00:13;13.90;99.90
8463;DHT22;4268;52.506;13.462;2023-09-30T05:02:39;13.80;99.90
8463;DHT22;4268;52.506;13.462;2023-09-30T05:05:05;13.80;99.90
8463;DHT22;4268;52.506;13.462;2023-09-30T05:07:32;13.70;99.90
8463;DHT22;4268;52.506;13.462;2023-09-30T05:09:57;13.80;99.90
8463;DHT22;4268;52.506;13.462;2023-09-30T05:12:23;13.70;99.90
8463;DHT22;4268;52.506;13.462;2023-09-30T05:14:48;13.70;99.90
8463;DHT22;4268;52.506;13.462;2023-09-30T05:17:14;13.70;99.90
8463;DHT22;4268;52.506;13.462;2023-09-30T05:19:39;13.70;99.90
8463;DHT22;4268;52.506;13.462;2023-09-30T05:22:05;13.70;99.90
8463;DHT22;4268;52.506;13.462;2023-09-30T05:24:30;13.70;99.90
8463;DHT22;4268;52.506;13.462;2023-09-30T05:26:56;13.70;99.90
8463;DHT22;4268;52.506;13.462;2023-09-30T05:29:22;13.70;99.90
8463;DHT22;4268;52.506;13.462;2023-09-30T05:31:48;13.80;99.90
8463;DHT22;4268;52.506;13.462;2023-09-30T05:34:13;14.00;99.90
8463;DHT22;4268;52.506;13.462;2023-09-30T05:36:39;13.80;99.90
8463;DHT22;4268;52.506;13.462;2023-09-30T05:39:05;13.70;99.90
8463;DHT22;4268;52.506;13.462;2023-09-30T05:41:33;13.90;99.90
8463;DHT22;4268;52.506;13.462;2023-09-30T05:43:58;14.00;99.90
8463;DHT22;4268;52.506;13.462;2023-09-30T05:46:25;14.00;99.90
8463;DHT22;4268;52.506;13.462;2023-09-30T05:48:50;14.10;99.90
8463;DHT22;4268;52.506;13.462;2023-09-30T05:51:16;14.10;99.90
8463;DHT22;4268;52.506;13.462;2023-09-30T05:53:41;14.10;99.90
8463;DHT22;4268;52.506;13.462;2023-09-30T05:56:08;14.20;99.90
8463;DHT22;4268;52.506;13.462;2023-09-30T05:58:35;14.30;99.90
8463;DHT22;4268;52.506;13.462;2023-09-30T06:01:01;14.40;99.90
8463;DHT22;4268;52.506;13.462;2023-09-30T06:03:27;14.20;99.90
8463;DHT22;4268;52.506;13.462;2023-09-30T06:05:55;14.60;99.90
8463;DHT22;4268;52.506;13.462;2023-09-30T06:08:21;14.70;99.90
8463;DHT22;4268;52.506;13.462;2023-09-30T06:10:46;14.90;99.90
8463;DHT22;4268;52.506;13.462;2023-09-30T06:13:12;15.00;99.90
8463;DHT22;4268;52.506;13.462;2023-09-30T06:15:39;14.10;99.90
8463;DHT22;4268;52.506;13.462;2023-09-30T06:18:05;15.30;99.90
8463;DHT22;4268;52.506;13.462;2023-09-30T06:20:31;15.40;99.90
8463;DHT22;4268;52.506;13.462;2023-09-30T06:22:57;15.60;99.90
8463;DHT22;4268;52.506;13.462;2023-09-30T06:25:23;15.80;99.90
8463;DHT22;4268;52.506;13.462;2023-09-30T06:27:50;16.30;99.90
8463;DHT22;4268;52.506;13.462;2023-09-30T06:30:16;16.30;99.90
8463;DHT22;4268;52.506;13.462;2023-09-30T06:32:43;16.30;99.90
8463;DHT22;4268;52.506;13.462;2023-09-30T06:35:09;16.30;99.90
8463;DHT22;4268;52.506;13.462;2023-09-30T06:37:38;16.30;99.90
8463;DHT22;4268;52.506;13.462;2023-09-30T06:40:08;16.30;99.90
8463;DHT22;4268;52.506;13.462;2023-09-30T06:42:35;16.20;99.90
8463;DHT22;4268;52.506;13.462;2023-09-30T06:45:01;16.10;99.90
8463;DHT22;4268;52.506;13.462;2023-09-30T06:47:37;16.20;99.90
8463;DHT22;4268;52.506;13.462;2023-09-30T06:50:05;16.70;99.90
8463;DHT22;4268;52.506;13.462;2023-09-30T06:52:38;17.70;99.90
8463;DHT22;4268;52.506;13.462;2023-09-30T06:55:04;18.60;99.90
8463;DHT22;4268;52.506;13.462;2023-09-30T06:57:32;18.70;99.90
8463;DHT22;4268;52.506;13.462;2023-09-30T06:59:58;18.60;99.90
8463;DHT22;4268;52.506;13.462;2023-09-30T07:02:23;18.10;99.90
8463;DHT22;4268;52.506;13.462;2023-09-30T07:04:49;17.40;99.90
8463;DHT22;4268;52.506;13.462;2023-09-30T07:07:14;17.60;99.90
8463;DHT22;4268;52.506;13.462;2023-09-30T07:09:41;17.50;99.90
8463;DHT22;4268;52.506;13.462;2023-09-30T07:12:07;17.40;99.90
8463;DHT22;4268;52.506;13.462;2023-09-30T07:14:32;17.30;99.90
8463;DHT22;4268;52.506;13.462;2023-09-30T07:16:58;17.70;99.90
8463;DHT22;4268;52.506;13.462;2023-09-30T07:19:23;17.90;99.90
8463;DHT22;4268;52.506;13.462;2023-09-30T07:21:49;18.20;99.90
8463;DHT22;4268;52.506;13.462;2023-09-30T07:24:14;18.60;99.90
8463;DHT22;4268;52.506;13.462;2023-09-30T07:26:40;18.90;99.90
8463;DHT22;4268;52.506;13.462;2023-09-30T07:29:06;19.10;99.90
8463;DHT22;4268;52.506;13.462;2023-09-30T07:31:37;19.00;99.90
8463;DHT22;4268;52.506;13.462;2023-09-30T07:34:03;18.80;99.90
8463;DHT22;4268;52.506;13.462;2023-09-30T07:36:29;18.70;99.90
8463;DHT22;4268;52.506;13.462;2023-09-30T07:38:54;18.70;99.90
8463;DHT22;4268;52.506;13.462;2023-09-30T07:41:20;18.30;99.90
8463;DHT22;4268;52.506;13.462;2023-09-30T07:43:46;18.20;99.90
8463;DHT22;4268;52.506;13.462;2023-09-30T07:46:12;18.00;99.90
8463;DHT22;4268;52.506;13.462;2023-09-30T07:48:37;18.20;99.90
8463;DHT22;4268;52.506;13.462;2023-09-30T07:51:04;17.70;99.90
8463;DHT22;4268;52.506;13.462;2023-09-30T07:53:34;17.60;99.90
8463;DHT22;4268;52.506;13.462;2023-09-30T07:56:00;17.50;99.90
8463;DHT22;4268;52.506;13.462;2023-09-30T07:58:25;17.60;99.90
8463;DHT22;4268;52.506;13.462;2023-09-30T08:00:51;17.50;99.90
8463;DHT22;4268;52.506;13.462;2023-09-30T08:03:16;17.50;99.90
8463;DHT22;4268;52.506;13.462;2023-09-30T08:05:42;17.50;99.90
8463;DHT22;4268;52.506;13.462;2023-09-30T08:08:08;17.40;99.90
8463;DHT22;4268;52.506;13.462;2023-09-30T08:10:33;17.30;99.90
8463;DHT22;4268;52.506;13.462;2023-09-30T08:12:59;17.30;99.90
8463;DHT22;4268;52.506;13.462;2023-09-30T08:15:27;17.30;99.90
8463;DHT22;4268;52.506;13.462;2023-09-30T08:17:53;17.40;99.90
8463;DHT22;4268;52.506;13.462;2023-09-30T08:20:18;16.90;99.90
8463;DHT22;4268;52.506;13.462;2023-09-30T08:22:44;17.40;99.90
8463;DHT22;4268;52.506;13.462;2023-09-30T08:25:10;17.50;99.90
8463;DHT22;4268;52.506;13.462;2023-09-30T08:27:37;17.70;99.90
8463;DHT22;4268;52.506;13.462;2023-09-30T08:30:03;17.80;99.90
8463;DHT22;4268;52.506;13.462;2023-09-30T08:32:33;17.90;99.90
8463;DHT22;4268;52.506;13.462;2023-09-30T08:34:59;17.90;99.90
8463;DHT22;4268;52.506;13.462;2023-09-30T08:37:24;18.00;99.90
8463;DHT22;4268;52.506;13.462;2023-09-30T08:39:50;18.10;99.90
8463;DHT22;4268;52.506;13.462;2023-09-30T08:42:16;18.10;99.90
8463;DHT22;4268;52.506;13.462;2023-09-30T08:44:44;18.20;99.90
8463;DHT22;4268;52.506;13.462;2023-09-30T08:47:10;18.30;99.90
8463;DHT22;4268;52.506;13.462;2023-09-30T08:49:40;18.20;99.90
8463;DHT22;4268;52.506;13.462;2023-09-30T08:52:07;18.20;99.90
8463;DHT22;4268;52.506;13.462;2023-09-30T08:54:34;18.10;99.90
8463;DHT22;4268;52.506;13.462;2023-09-30T08:57:00;18.20;99.90
8463;DHT22;4268;52.506;13.462;2023-09-30T08:59:31;18.30;99.90
8463;DHT22;4268;52.506;13.462;2023-09-30T09:01:57;18.40;99.90
8463;DHT22;4268;52.506;13.462;2023-09-30T09:04:23;18.40;99.90
8463;DHT22;4268;52.506;13.462;2023-09-30T09:06:49;18.00;99.90
8463;DHT22;4268;52.506;13.462;2023-09-30T09:09:18;18.00;99.90
8463;DHT22;4268;52.506;13.462;2023-09-30T09:11:45;18.00;99.90
8463;DHT22;4268;52.506;13.462;2023-09-30T09:14:11;18.00;99.90
8463;DHT22;4268;52.506;13.462;2023-09-30T09:16:37;18.00;99.90
8463;DHT22;4268;52.506;13.462;2023-09-30T09:19:15;18.30;99.90
8463;DHT22;4268;52.506;13.462;2023-09-30T09:21:57;18.10;99.90
8463;DHT22;4268;52.506;13.462;2023-09-30T09:24:34;18.20;99.90
8463;DHT22;4268;52.506;13.462;2023-09-30T09:27:07;18.20;99.90
8463;DHT22;4268;52.506;13.462;2023-09-30T09:29:34;18.30;99.90
8463;DHT22;4268;52.506;13.462;2023-09-30T09:32:14;18.40;99.90
8463;DHT22;4268;52.506;13.462;2023-09-30T09:34:42;18.60;99.90
8463;DHT22;4268;52.506;13.462;2023-09-30T09:37:21;18.70;99.90
8463;DHT22;4268;52.506;13.462;2023-09-30T09:39:51;18.70;99.90
8463;DHT22;4268;52.506;13.462;2023-09-30T09:42:31;18.80;99.90
8463;DHT22;4268;52.506;13.462;2023-09-30T09:45:06;18.90;99.90
8463;DHT22;4268;52.506;13.462;2023-09-30T09:47:35;19.00;99.90
8463;DHT22;4268;52.506;13.462;2023-09-30T09:50:03;19.00;99.90
8463;DHT22;4268;52.506;13.462;2023-09-30T09:52:31;19.10;99.90
8463;DHT22;4268;52.506;13.462;2023-09-30T09:54:59;19.20;99.90
8463;DHT22;4268;52.506;13.462;2023-09-30T09:57:26;19.40;99.90
8463;DHT22;4268;52.506;13.462;2023-09-30T09:59:53;19.50;99.90
8463;DHT22;4268;52.506;13.462;2023-09-30T10:02:21;19.60;99.90
8463;DHT22;4268;52.506;13.462;2023-09-30T10:04:48;19.80;99.90
8463;DHT22;4268;52.506;13.462;2023-09-30T10:07:21;19.80;99.90
8463;DHT22;4268;52.506;13.462;2023-09-30T10:09:50;19.80;99.90
8463;DHT22;4268;52.506;13.462;2023-09-30T10:12:17;19.90;99.90
8463;DHT22;4268;52.506;13.462;2023-09-30T10:14:43;20.00;99.90
8463;DHT22;4268;52.506;13.462;2023-09-30T10:17:09;20.00;99.80
8463;DHT22;4268;52.506;13.462;2023-09-30T10:19:35;20.00;99.70
8463;DHT22;4268;52.506;13.462;2023-09-30T10:24:45;19.70;99.90
8463;DHT22;4268;52.506;13.462;2023-09-30T10:40:48;19.40;99.00
8463;DHT22;4268;52.506;13.462;2023-09-30T10:45:55;19.60;97.60
8463;DHT22;4268;52.506;13.462;2023-09-30T10:51:14;19.90;97.00
8463;DHT22;4268;52.506;13.462;2023-09-30T10:53:42;19.70;96.90
8463;DHT22;4268;52.506;13.462;2023-09-30T10:56:08;19.80;96.80
8463;DHT22;4268;52.506;13.462;2023-09-30T10:58:41;19.70;96.20
8463;DHT22;4268;52.506;13.462;2023-09-30T11:01:07;19.60;96.60
8463;DHT22;4268;52.506;13.462;2023-09-30T11:03:33;19.50;96.80
8463;DHT22;4268;52.506;13.462;2023-09-30T11:05:58;19.70;96.90
8463;DHT22;4268;52.506;13.462;2023-09-30T11:08:28;19.80;96.90
8463;DHT22;4268;52.506;13.462;2023-09-30T11:10:53;20.10;96.60
8463;DHT22;4268;52.506;13.462;2023-09-30T11:13:20;20.20;96.00
8463;DHT22;4268;52.506;13.462;2023-09-30T11:15:46;20.30;95.70
8463;DHT22;4268;52.506;13.462;2023-09-30T11:18:15;20.30;95.30
8463;DHT22;4268;52.506;13.462;2023-09-30T11:20:42;20.50;95.00
8463;DHT22;4268;52.506;13.462;2023-09-30T11:23:08;20.50;94.60
8463;DHT22;4268;52.506;13.462;2023-09-30T11:25:38;20.40;94.20
8463;DHT22;4268;52.506;13.462;2023-09-30T11:28:15;20.30;94.30
8463;DHT22;4268;52.506;13.462;2023-09-30T11:30:57;20.30;94.30
8463;DHT22;4268;52.506;13.462;2023-09-30T11:33:23;20.40;94.40
8463;DHT22;4268;52.506;13.462;2023-09-30T11:38:27;20.40;94.60
8463;DHT22;4268;52.506;13.462;2023-09-30T11:41:03;20.40;94.70
8463;DHT22;4268;52.506;13.462;2023-09-30T11:43:33;20.30;94.40
8463;DHT22;4268;52.506;13.462;2023-09-30T11:46:10;20.30;94.60
8463;DHT22;4268;52.506;13.462;2023-09-30T11:49:00;20.30;94.50
8463;DHT22;4268;52.506;13.462;2023-09-30T11:51:28;20.40;94.70
8463;DHT22;4268;52.506;13.462;2023-09-30T11:53:54;20.60;94.70
8463;DHT22;4268;52.506;13.462;2023-09-30T11:56:21;20.70;94.80
8463;DHT22;4268;52.506;13.462;2023-09-30T11:58:53;20.60;93.30
8463;DHT22;4268;52.506;13.462;2023-09-30T12:01:19;20.60;93.00
8463;DHT22;4268;52.506;13.462;2023-09-30T12:03:47;20.80;92.90
8463;DHT22;4268;52.506;13.462;2023-09-30T12:06:16;20.80;92.30
8463;DHT22;4268;52.506;13.462;2023-09-30T12:08:44;20.90;92.70
8463;DHT22;4268;52.506;13.462;2023-09-30T12:11:10;20.90;92.50
8463;DHT22;4268;52.506;13.462;2023-09-30T12:13:38;21.00;92.90
8463;DHT22;4268;52.506;13.462;2023-09-30T12:16:04;21.00;92.40
8463;DHT22;4268;52.506;13.462;2023-09-30T12:18:30;21.10;92.50
8463;DHT22;4268;52.506;13.462;2023-09-30T12:20:55;21.10;92.70
8463;DHT22;4268;52.506;13.462;2023-09-30T12:23:21;21.10;92.00
8463;DHT22;4268;52.506;13.462;2023-09-30T12:25:47;21.00;92.10
8463;DHT22;4268;52.506;13.462;2023-09-30T12:28:13;21.30;92.20
8463;DHT22;4268;52.506;13.462;2023-09-30T12:30:40;21.00;90.70
8463;DHT22;4268;52.506;13.462;2023-09-30T12:33:06;21.10;90.80
8463;DHT22;4268;52.506;13.462;2023-09-30T12:35:32;20.90;90.00
8463;DHT22;4268;52.506;13.462;2023-09-30T12:37:58;21.00;89.80
8463;DHT22;4268;52.506;13.462;2023-09-30T12:40:24;21.10;88.80
8463;DHT22;4268;52.506;13.462;2023-09-30T12:42:49;21.00;89.10
8463;DHT22;4268;52.506;13.462;2023-09-30T12:45:15;21.00;89.60
8463;DHT22;4268;52.506;13.462;2023-09-30T12:47:42;21.00;88.90
8463;DHT22;4268;52.506;13.462;2023-09-30T12:50:08;21.00;88.10
8463;DHT22;4268;52.506;13.462;2023-09-30T12:52:36;21.00;88.40
8463;DHT22;4268;52.506;13.462;2023-09-30T12:55:04;20.70;88.80
8463;DHT22;4268;52.506;13.462;2023-09-30T12:57:30;20.60;89.50
8463;DHT22;4268;52.506;13.462;2023-09-30T12:59:56;20.40;89.40
8463;DHT22;4268;52.506;13.462;2023-09-30T13:02:22;20.40;90.10
8463;DHT22;4268;52.506;13.462;2023-09-30T13:04:47;20.30;90.10
8463;DHT22;4268;52.506;13.462;2023-09-30T13:07:14;20.20;89.70
8463;DHT22;4268;52.506;13.462;2023-09-30T13:09:39;20.30;89.40
8463;DHT22;4268;52.506;13.462;2023-09-30T13:12:05;20.30;89.20
8463;DHT22;4268;52.506;13.462;2023-09-30T13:14:31;20.30;89.30
8463;DHT22;4268;52.506;13.462;2023-09-30T13:16:56;20.30;89.70
8463;DHT22;4268;52.506;13.462;2023-09-30T13:19:22;20.30;89.20
8463;DHT22;4268;52.506;13.462;2023-09-30T13:21:51;20.20;89.20
8463;DHT22;4268;52.506;13.462;2023-09-30T13:24:21;20.30;88.70
8463;DHT22;4268;52.506;13.462;2023-09-30T13:26:47;20.40;88.70
8463;DHT22;4268;52.506;13.462;2023-09-30T13:29:15;21.00;88.90
8463;DHT22;4268;52.506;13.462;2023-09-30T13:31:42;20.50;88.10
8463;DHT22;4268;52.506;13.462;2023-09-30T13:34:08;20.50;88.70
8463;DHT22;4268;52.506;13.462;2023-09-30T13:36:34;20.50;86.10
8463;DHT22;4268;52.506;13.462;2023-09-30T13:39:02;20.50;86.10
8463;DHT22;4268;52.506;13.462;2023-09-30T13:41:33;20.50;85.50
8463;DHT22;4268;52.506;13.462;2023-09-30T13:43:58;20.50;86.00
8463;DHT22;4268;52.506;13.462;2023-09-30T13:46:24;20.50;86.50
8463;DHT22;4268;52.506;13.462;2023-09-30T13:48:51;20.50;87.20
8463;DHT22;4268;52.506;13.462;2023-09-30T13:51:18;20.50;87.60
8463;DHT22;4268;52.506;13.462;2023-09-30T13:53:43;20.40;86.60
8463;DHT22;4268;52.506;13.462;2023-09-30T13:56:08;20.40;85.80
8463;DHT22;4268;52.506;13.462;2023-09-30T13:58:35;20.30;85.80
8463;DHT22;4268;52.506;13.462;2023-09-30T14:01:01;19.60;85.60
8463;DHT22;4268;52.506;13.462;2023-09-30T14:03:26;20.40;86.70
8463;DHT22;4268;52.506;13.462;2023-09-30T14:05:52;20.30;86.40
8463;DHT22;4268;52.506;13.462;2023-09-30T14:08:22;20.40;86.60
8463;DHT22;4268;52.506;13.462;2023-09-30T14:10:47;20.30;86.90
8463;DHT22;4268;52.506;13.462;2023-09-30T14:13:13;20.40;87.00
8463;DHT22;4268;52.506;13.462;2023-09-30T14:15:40;20.30;86.90
8463;DHT22;4268;52.506;13.462;2023-09-30T14:18:05;20.30;87.10
8463;DHT22;4268;52.506;13.462;2023-09-30T14:20:31;20.30;87.10
8463;DHT22;4268;52.506;13.462;2023-09-30T14:22:58;20.30;87.10
8463;DHT22;4268;52.506;13.462;2023-09-30T14:25:24;20.20;87.20
8463;DHT22;4268;52.506;13.462;2023-09-30T14:27:49;20.20;86.60
8463;DHT22;4268;52.506;13.462;2023-09-30T14:30:15;20.20;86.50
8463;DHT22;4268;52.506;13.462;2023-09-30T14:32:42;20.10;86.00
8463;DHT22;4268;52.506;13.462;2023-09-30T14:35:08;20.10;86.50
8463;DHT22;4268;52.506;13.462;2023-09-30T14:37:34;19.90;86.00
8463;DHT22;4268;52.506;13.462;2023-09-30T14:40:00;19.70;86.00
8463;DHT22;4268;52.506;13.462;2023-09-30T14:42:26;19.80;85.00
8463;DHT22;4268;52.506;13.462;2023-09-30T14:44:51;19.50;84.80
8463;DHT22;4268;52.506;13.462;2023-09-30T14:47:17;19.50;84.70
8463;DHT22;4268;52.506;13.462;2023-09-30T14:49:42;19.50;84.90
8463;DHT22;4268;52.506;13.462;2023-09-30T14:52:08;19.40;85.30
8463;DHT22;4268;52.506;13.462;2023-09-30T14:54:35;19.40;84.80
8463;DHT22;4268;52.506;13.462;2023-09-30T14:57:00;19.30;84.70
8463;DHT22;4268;52.506;13.462;2023-09-30T14:59:26;19.20;85.50
8463;DHT22;4268;52.506;13.462;2023-09-30T15:01:52;19.20;86.20
8463;DHT22;4268;52.506;13.462;2023-09-30T15:04:18;19.20;86.70
8463;DHT22;4268;52.506;13.462;2023-09-30T15:06:44;19.10;86.90
8463;DHT22;4268;52.506;13.462;2023-09-30T15:09:11;19.10;87.70
8463;DHT22;4268;52.506;13.462;2023-09-30T15:11:37;19.10;88.30
8463;DHT22;4268;52.506;13.462;2023-09-30T15:14:03;19.20;88.20
8463;DHT22;4268;52.506;13.462;2023-09-30T15:16:30;18.90;88.20
8463;DHT22;4268;52.506;13.462;2023-09-30T15:18:56;18.80;88.80
8463;DHT22;4268;52.506;13.462;2023-09-30T15:21:22;18.90;89.10
8463;DHT22;4268;52.506;13.462;2023-09-30T15:23:49;18.90;89.10
8463;DHT22;4268;52.506;13.462;2023-09-30T15:26:15;18.90;89.50
8463;DHT22;4268;52.506;13.462;2023-09-30T15:28:41;18.80;89.40
8463;DHT22;4268;52.506;13.462;2023-09-30T15:31:07;18.80;89.30
8463;DHT22;4268;52.506;13.462;2023-09-30T15:33:33;18.40;88.90
8463;DHT22;4268;52.506;13.462;2023-09-30T15:36:07;18.70;89.80
8463;DHT22;4268;52.506;13.462;2023-09-30T15:38:33;18.60;90.20
8463;DHT22;4268;52.506;13.462;2023-09-30T15:40:59;18.60;90.20
8463;DHT22;4268;52.506;13.462;2023-09-30T15:43:26;18.60;90.00
8463;DHT22;4268;52.506;13.462;2023-09-30T15:45:52;18.60;90.20
8463;DHT22;4268;52.506;13.462;2023-09-30T15:48:19;18.50;90.30
8463;DHT22;4268;52.506;13.462;2023-09-30T15:50:45;18.50;90.40
8463;DHT22;4268;52.506;13.462;2023-09-30T15:53:11;18.40;90.40
8463;DHT22;4268;52.506;13.462;2023-09-30T15:55:37;18.40;90.60
8463;DHT22;4268;52.506;13.462;2023-09-30T15:58:05;18.40;90.70
8463;DHT22;4268;52.506;13.462;2023-09-30T16:00:38;18.30;90.70
8463;DHT22;4268;52.506;13.462;2023-09-30T16:03:05;18.30;90.60
8463;DHT22;4268;52.506;13.462;2023-09-30T16:05:36;18.20;90.60
8463;DHT22;4268;52.506;13.462;2023-09-30T16:08:05;18.20;90.70